Time,TemperatureF,DewpointF,PressureIn,WindDirection,WindDirectionDegrees,WindSpeedMPH,WindSpeedGustMPH,Humidity,HourlyPrecipIn,Conditions,Clouds,dailyrainin,SolarRadiationWatts/m^2,SoftwareType,DateUTC
2013-05-31 00:02:00,79.0,22.0,-100.00,SSE,165,4.0,22.0,12,-99.99,,,0.00,0.000000,,2013-05-31 07:02:00,
2013-05-31 00:52:00,78.0,17.0,-100.00,West,267,2.0,9.0,10,0.00,,,0.00,0.000000,,2013-05-31 07:52:00,
2013-05-31 01:52:00,76.0,20.0,-100.00,WSW,241,1.0,14.0,12,0.00,,,0.00,0.000000,,2013-05-31 08:52:00,
2013-05-31 02:53:00,77.0,8.0,-100.00,WSW,237,8.0,17.0,7,0.00,,,0.00,0.000000,,2013-05-31 09:53:00,
2013-05-31 03:52:00,75.0,12.0,-100.00,SW,220,5.0,17.0,9,0.00,,,0.00,0.000000,,2013-05-31 10:52:00,
2013-05-31 04:52:00,73.0,15.0,-100.00,South,183,1.0,11.0,11,0.00,,,0.00,0.000000,,2013-05-31 11:52:00,
2013-05-31 05:52:00,73.0,19.0,-100.00,SW,217,6.0,14.0,13,0.00,,,0.00,0.000000,,2013-05-31 12:52:00,
2013-05-31 06:01:00,73.0,19.0,-100.00,SW,217,6.0,14.0,13,0.00,,,0.00,0.000000,,2013-05-31 13:01:00,
2013-05-31 06:52:00,73.0,23.0,-100.00,East,92,0.0,18.0,15,0.00,,,0.00,48.000000,,2013-05-31 13:52:00,
2013-05-31 07:02:00,73.0,23.0,-100.00,East,92,0.0,18.0,15,0.00,,,0.00,48.000000,,2013-05-31 14:02:00,
2013-05-31 07:11:00,73.0,23.0,-100.00,East,92,0.0,18.0,15,0.00,,,0.00,48.000000,,2013-05-31 14:11:00,
2013-05-31 07:21:00,73.0,23.0,-100.00,East,92,0.0,18.0,15,0.00,,,0.00,48.000000,,2013-05-31 14:21:00,
2013-05-31 07:52:00,79.0,26.0,-100.00,ENE,72,2.0,6.0,14,0.00,,,0.00,283.000000,,2013-05-31 14:52:00,
2013-05-31 08:53:00,79.0,22.0,-100.00,SSW,208,6.0,13.0,12,-99.99,,,0.00,554.000000,,2013-05-31 15:53:00,
2013-05-31 09:03:00,79.0,22.0,-100.00,SSW,208,6.0,13.0,12,-99.99,,,0.00,554.000000,,2013-05-31 16:03:00,
2013-05-31 09:12:00,79.0,22.0,-100.00,SSW,208,6.0,13.0,12,-99.99,,,0.00,554.000000,,2013-05-31 16:12:00,
2013-05-31 09:22:00,79.0,22.0,-100.00,SSW,208,6.0,13.0,12,-99.99,,,0.00,554.000000,,2013-05-31 16:22:00,
2013-05-31 09:52:00,83.0,23.0,-100.00,South,187,7.0,16.0,11,0.00,,,0.00,816.000000,,2013-05-31 16:52:00,
2013-05-31 10:02:00,83.0,23.0,-100.00,South,187,7.0,16.0,11,0.00,,,0.00,816.000000,,2013-05-31 17:02:00,
2013-05-31 10:12:00,83.0,23.0,-100.00,South,187,7.0,16.0,11,0.00,,,0.00,816.000000,,2013-05-31 17:12:00,
2013-05-31 10:22:00,83.0,23.0,-100.00,South,187,7.0,16.0,11,0.00,,,0.00,816.000000,,2013-05-31 17:22:00,
2013-05-31 10:52:00,84.0,19.0,-100.00,ESE,119,7.0,24.0,9,0.00,,,0.00,1043.000000,,2013-05-31 17:52:00,
2013-05-31 11:01:00,84.0,19.0,-100.00,ESE,119,7.0,24.0,9,0.00,,,0.00,1043.000000,,2013-05-31 18:01:00,
2013-05-31 11:11:00,84.0,19.0,-100.00,ESE,119,7.0,24.0,9,0.00,,,0.00,1043.000000,,2013-05-31 18:11:00,
2013-05-31 11:21:00,84.0,19.0,-100.00,ESE,119,7.0,24.0,9,0.00,,,0.00,1043.000000,,2013-05-31 18:21:00,
2013-05-31 11:52:00,90.0,21.0,-100.00,SSE,153,3.0,22.0,8,0.00,,,0.00,1216.000000,,2013-05-31 18:52:00,
2013-05-31 12:01:00,90.0,21.0,-100.00,SSE,153,3.0,22.0,8,0.00,,,0.00,1216.000000,,2013-05-31 19:01:00,
2013-05-31 12:52:00,86.0,21.0,-100.00,ESE,103,7.0,18.0,9,0.00,,,0.00,1312.000000,,2013-05-31 19:52:00,
2013-05-31 13:01:00,86.0,21.0,-100.00,ESE,103,7.0,18.0,9,0.00,,,0.00,1312.000000,,2013-05-31 20:01:00,
2013-05-31 13:11:00,86.0,21.0,-100.00,ESE,103,7.0,18.0,9,0.00,,,0.00,1312.000000,,2013-05-31 20:11:00,
2013-05-31 13:22:00,86.0,21.0,-100.00,ESE,103,7.0,18.0,9,0.00,,,0.00,1312.000000,,2013-05-31 20:22:00,
2013-05-31 13:52:00,90.0,21.0,-100.00,East,94,3.0,16.0,8,0.00,,,0.00,1339.000000,,2013-05-31 20:52:00,
2013-05-31 14:01:00,90.0,21.0,-100.00,East,94,3.0,16.0,8,0.00,,,0.00,1339.000000,,2013-05-31 21:01:00,
2013-05-31 14:11:00,90.0,21.0,-100.00,East,94,3.0,16.0,8,0.00,,,0.00,1339.000000,,2013-05-31 21:11:00,
2013-05-31 14:22:00,90.0,21.0,-100.00,East,94,3.0,16.0,8,0.00,,,0.00,1339.000000,,2013-05-31 21:22:00,
2013-05-31 14:54:00,89.0,20.0,-100.00,ESE,110,8.0,19.0,8,0.00,,,0.00,1302.000000,,2013-05-31 21:54:00,
2013-05-31 15:02:00,89.0,20.0,-100.00,ESE,110,8.0,19.0,8,0.00,,,0.00,1302.000000,,2013-05-31 22:02:00,
2013-05-31 15:12:00,89.0,20.0,-100.00,ESE,110,8.0,19.0,8,0.00,,,0.00,1302.000000,,2013-05-31 22:12:00,
2013-05-31 15:22:00,89.0,20.0,-100.00,ESE,110,8.0,19.0,8,0.00,,,0.00,1302.000000,,2013-05-31 22:22:00,
2013-05-31 15:53:00,93.0,20.0,-100.00,East,97,3.0,15.0,7,0.00,,,0.00,1192.000000,,2013-05-31 22:53:00,
2013-05-31 16:02:00,93.0,20.0,-100.00,East,97,3.0,15.0,7,0.00,,,0.00,1192.000000,,2013-05-31 23:02:00,
2013-05-31 16:12:00,93.0,20.0,-100.00,East,97,3.0,15.0,7,0.00,,,0.00,1192.000000,,2013-05-31 23:12:00,
2013-05-31 16:21:00,93.0,20.0,-100.00,East,97,3.0,15.0,7,0.00,,,0.00,1192.000000,,2013-05-31 23:21:00,
2013-05-31 16:52:00,91.0,18.0,-100.00,ESE,114,4.0,12.0,7,0.00,,,0.00,1005.000000,,2013-05-31 23:52:00,
2013-05-31 17:01:00,91.0,18.0,-100.00,ESE,114,4.0,12.0,7,0.00,,,0.00,1005.000000,,2013-06-01 00:01:00,
2013-05-31 17:11:00,91.0,18.0,-100.00,ESE,114,4.0,12.0,7,0.00,,,0.00,1005.000000,,2013-06-01 00:11:00,
2013-05-31 17:22:00,91.0,18.0,-100.00,ESE,114,4.0,12.0,7,0.00,,,0.00,1005.000000,,2013-06-01 00:22:00,
2013-05-31 17:52:00,91.0,18.0,-100.00,ESE,104,4.0,13.0,7,0.00,,,0.00,761.000000,,2013-06-01 00:52:00,
2013-05-31 18:01:00,91.0,18.0,-100.00,ESE,104,4.0,13.0,7,0.00,,,0.00,761.000000,,2013-06-01 01:01:00,
2013-05-31 18:11:00,91.0,18.0,-100.00,ESE,104,4.0,13.0,7,0.00,,,0.00,761.000000,,2013-06-01 01:11:00,
2013-05-31 18:21:00,91.0,18.0,-100.00,ESE,104,4.0,13.0,7,0.00,,,0.00,761.000000,,2013-06-01 01:21:00,
2013-05-31 18:52:00,92.0,19.0,-100.00,South,169,2.0,11.0,7,0.00,,,0.00,346.000000,,2013-06-01 01:52:00,
2013-05-31 19:01:00,92.0,19.0,-100.00,South,169,2.0,11.0,7,0.00,,,0.00,346.000000,,2013-06-01 02:01:00,
2013-05-31 19:11:00,92.0,19.0,-100.00,South,169,2.0,11.0,7,0.00,,,0.00,346.000000,,2013-06-01 02:11:00,
2013-05-31 19:21:00,92.0,19.0,-100.00,South,169,2.0,11.0,7,0.00,,,0.00,346.000000,,2013-06-01 02:21:00,
2013-05-31 19:52:00,84.0,19.0,-100.00,South,183,1.0,7.0,9,0.00,,,0.00,32.000000,,2013-06-01 02:52:00,
2013-05-31 20:01:00,84.0,19.0,-100.00,South,183,1.0,7.0,9,0.00,,,0.00,32.000000,,2013-06-01 03:01:00,
2013-05-31 20:11:00,84.0,19.0,-100.00,South,183,1.0,7.0,9,0.00,,,0.00,32.000000,,2013-06-01 03:11:00,
2013-05-31 20:21:00,84.0,19.0,-100.00,South,183,1.0,7.0,9,0.00,,,0.00,32.000000,,2013-06-01 03:21:00,
2013-05-31 20:53:00,82.0,18.0,-100.00,South,173,0.0,5.0,9,0.00,,,0.00,9.000000,,2013-06-01 03:53:00,
2013-05-31 21:02:00,82.0,18.0,-100.00,South,173,0.0,5.0,9,0.00,,,0.00,9.000000,,2013-06-01 04:02:00,
2013-05-31 21:12:00,82.0,18.0,-100.00,South,173,0.0,5.0,9,0.00,,,0.00,9.000000,,2013-06-01 04:12:00,
2013-05-31 21:23:00,82.0,18.0,-100.00,South,173,0.0,5.0,9,0.00,,,0.00,9.000000,,2013-06-01 04:23:00,
2013-05-31 22:52:00,82.0,18.0,-100.00,WSW,251,5.0,9.0,9,0.00,,,0.00,0.000000,,2013-06-01 05:52:00,
2013-05-31 23:01:00,82.0,18.0,-100.00,WSW,251,5.0,9.0,9,0.00,,,0.00,0.000000,,2013-06-01 06:01:00,
2013-05-31 23:12:00,82.0,18.0,-100.00,WSW,251,5.0,9.0,9,0.00,,,0.00,0.000000,,2013-06-01 06:12:00,
2013-05-31 23:22:00,82.0,18.0,-100.00,WSW,251,5.0,9.0,9,0.00,,,0.00,0.000000,,2013-06-01 06:22:00,